createdAt,value
2018-01-12T00:00:00.344Z,22.31
2018-01-12T00:01:00.347Z,22.35
2018-01-12T00:02:00.367Z,22.36
2018-01-12T00:03:00.354Z,22.40
2018-01-12T00:04:00.354Z,22.40
2018-01-12T00:05:00.358Z,22.35
2018-01-12T00:06:00.359Z,22.33
2018-01-12T00:07:00.361Z,22.43
2018-01-12T00:08:00.363Z,22.35
2018-01-12T00:09:00.366Z,22.39
2018-01-12T00:10:00.368Z,22.45
2018-01-12T00:11:00.371Z,22.37
2018-01-12T00:12:00.372Z,22.37
2018-01-12T00:13:00.375Z,22.40
2018-01-12T00:14:00.378Z,22.40
2018-01-12T00:15:00.391Z,22.35
2018-01-12T00:16:00.382Z,22.30
2018-01-12T00:17:00.384Z,22.39
2018-01-12T00:18:00.387Z,22.37
2018-01-12T00:19:00.389Z,22.31
2018-01-12T00:20:00.390Z,22.36
2018-01-12T00:21:00.394Z,22.42
2018-01-12T00:22:00.397Z,22.33
2018-01-12T00:23:00.401Z,22.30
2018-01-12T00:24:00.401Z,22.30
2018-01-12T00:25:00.403Z,22.31
2018-01-12T00:26:00.406Z,22.35
2018-01-12T00:27:00.408Z,22.25
2018-01-12T00:28:00.409Z,22.35
2018-01-12T00:29:00.414Z,22.33
2018-01-12T00:30:00.414Z,22.31
2018-01-12T00:31:00.417Z,22.36
2018-01-12T00:32:00.476Z,22.33
2018-01-12T00:33:00.421Z,22.36
2018-01-12T00:34:00.426Z,22.33
2018-01-12T00:35:00.427Z,22.31
2018-01-12T00:36:00.427Z,22.25
2018-01-12T00:37:00.430Z,22.28
2018-01-12T00:38:00.432Z,22.31
2018-01-12T00:39:00.435Z,22.35
2018-01-12T00:40:00.438Z,22.27
2018-01-12T00:41:00.440Z,22.28
2018-01-12T00:42:00.443Z,22.30
2018-01-12T00:43:00.445Z,22.31
2018-01-12T00:44:00.446Z,22.30
2018-01-12T00:45:00.448Z,22.27
2018-01-12T00:46:00.451Z,22.35
2018-01-12T00:47:00.452Z,22.25
2018-01-12T00:48:00.455Z,22.22
2018-01-12T00:49:00.457Z,22.33
2018-01-12T00:50:00.460Z,22.25
2018-01-12T00:51:00.462Z,22.28
2018-01-12T00:52:00.464Z,22.25
2018-01-12T00:53:00.467Z,22.33
2018-01-12T00:54:00.469Z,22.35
2018-01-12T00:55:00.473Z,22.24
2018-01-12T00:56:00.473Z,22.24
2018-01-12T00:57:00.475Z,22.28
2018-01-12T00:58:00.478Z,22.28
2018-01-12T00:59:00.480Z,22.30
2018-01-12T01:00:00.482Z,22.27
2018-01-12T01:01:00.484Z,22.33
2018-01-12T01:02:00.490Z,22.24
2018-01-12T01:03:00.488Z,22.28
2018-01-12T01:04:00.490Z,22.27
2018-01-12T01:05:00.493Z,22.25
2018-01-12T01:06:00.495Z,22.25
2018-01-12T01:07:00.498Z,22.28
2018-01-12T01:08:00.499Z,22.24
2018-01-12T01:09:00.500Z,22.25
2018-01-12T01:10:00.504Z,22.20
2018-01-12T01:11:00.507Z,22.25
2018-01-12T01:12:00.510Z,22.24
2018-01-12T01:13:00.511Z,22.28
2018-01-12T01:14:00.514Z,22.24
2018-01-12T01:15:00.515Z,22.22
2018-01-12T01:16:00.517Z,22.25
2018-01-12T01:17:00.519Z,22.24
2018-01-12T01:18:00.521Z,22.21
2018-01-12T01:19:00.524Z,22.27
2018-01-12T01:20:00.527Z,22.27
2018-01-12T01:21:00.528Z,22.28
2018-01-12T01:22:00.530Z,22.28
2018-01-12T01:23:00.532Z,22.18
2018-01-12T01:24:00.534Z,22.24
2018-01-12T01:25:00.537Z,22.21
2018-01-12T01:26:00.536Z,22.18
2018-01-12T01:27:00.541Z,22.24
2018-01-12T01:28:00.542Z,22.21
2018-01-12T01:29:00.545Z,22.20
2018-01-12T01:30:00.548Z,22.18
2018-01-12T01:31:00.550Z,22.25
2018-01-12T01:32:00.551Z,22.22
2018-01-12T01:33:00.553Z,22.25
2018-01-12T01:34:00.558Z,22.15
2018-01-12T01:35:00.559Z,22.21
2018-01-12T01:36:00.560Z,22.21
2018-01-12T01:37:00.566Z,22.14
2018-01-12T01:38:00.564Z,22.20
2018-01-12T01:39:00.568Z,22.17
2018-01-12T01:40:00.574Z,22.17
2018-01-12T01:41:00.572Z,22.22
2018-01-12T01:42:00.576Z,22.24
2018-01-12T01:43:00.577Z,22.20
2018-01-12T01:44:00.577Z,22.12
2018-01-12T01:45:00.581Z,22.21
2018-01-12T01:46:00.582Z,22.18
2018-01-12T01:47:00.584Z,22.20
2018-01-12T01:48:00.588Z,22.22
2018-01-12T01:49:00.588Z,22.17
2018-01-12T01:50:00.591Z,22.20
2018-01-12T01:51:00.593Z,22.17
2018-01-12T01:52:00.597Z,22.17
2018-01-12T01:53:00.597Z,22.18
2018-01-12T01:54:00.599Z,22.20
2018-01-12T01:55:00.602Z,22.17
2018-01-12T01:56:00.603Z,22.20
2018-01-12T01:57:00.606Z,22.20
2018-01-12T01:58:00.609Z,22.17
2018-01-12T01:59:00.611Z,22.18
2018-01-12T02:00:00.612Z,22.18
2018-01-12T02:01:00.614Z,22.15
2018-01-12T02:02:00.617Z,22.22
2018-01-12T02:03:00.619Z,22.18
2018-01-12T02:04:00.619Z,22.20
2018-01-12T02:05:00.623Z,22.20
2018-01-12T02:06:00.629Z,22.25
2018-01-12T02:07:00.627Z,22.15
2018-01-12T02:08:00.628Z,22.14
2018-01-12T02:09:00.632Z,22.22
2018-01-12T02:10:00.642Z,22.22
2018-01-12T02:11:00.637Z,22.25
2018-01-12T02:12:00.638Z,22.21
2018-01-12T02:13:00.641Z,22.17
2018-01-12T02:14:00.649Z,22.17
2018-01-12T02:15:00.647Z,22.17
2018-01-12T02:16:00.650Z,22.18
2018-01-12T02:17:00.650Z,22.14
2018-01-12T02:18:00.651Z,22.15
2018-01-12T02:19:00.654Z,22.15
2018-01-12T02:20:00.656Z,22.15
2018-01-12T02:21:00.657Z,22.28
2018-01-12T02:22:00.660Z,22.12
2018-01-12T02:23:00.692Z,22.12
2018-01-12T02:24:00.665Z,22.15
2018-01-12T02:25:00.666Z,22.14
2018-01-12T02:26:00.669Z,22.10
2018-01-12T02:27:00.671Z,22.09
2018-01-12T02:28:00.673Z,22.15
2018-01-12T02:29:00.675Z,22.12
2018-01-12T02:30:00.678Z,22.06
2018-01-12T02:31:00.681Z,22.14
2018-01-12T02:32:00.681Z,22.09
2018-01-12T02:33:00.684Z,22.12
2018-01-12T02:34:00.687Z,22.25
2018-01-12T02:35:00.689Z,22.09
2018-01-12T02:36:00.690Z,22.06
2018-01-12T02:37:00.693Z,22.10
2018-01-12T02:38:00.694Z,22.10
2018-01-12T02:39:00.697Z,22.18
2018-01-12T02:40:00.698Z,22.20
2018-01-12T02:41:00.700Z,22.15
2018-01-12T02:42:00.705Z,22.20
2018-01-12T02:43:00.705Z,22.15
2018-01-12T02:44:00.707Z,22.21
2018-01-12T02:45:00.708Z,22.10
2018-01-12T02:46:00.711Z,22.20
2018-01-12T02:47:00.714Z,22.15
2018-01-12T02:48:00.715Z,22.10
2018-01-12T02:49:00.717Z,22.09
2018-01-12T02:50:00.722Z,22.20
2018-01-12T02:51:00.721Z,22.15
2018-01-12T02:52:00.724Z,22.15
2018-01-12T02:53:00.726Z,22.05
2018-01-12T02:54:00.727Z,22.17
2018-01-12T02:55:00.731Z,22.03
2018-01-12T02:56:00.731Z,22.18
2018-01-12T02:57:00.734Z,22.12
2018-01-12T02:58:00.735Z,22.17
2018-01-12T02:59:00.738Z,22.15
2018-01-12T03:00:00.741Z,22.12
2018-01-12T03:01:00.742Z,22.10
2018-01-12T03:02:00.745Z,22.15
2018-01-12T03:03:00.747Z,22.05
2018-01-12T03:04:00.748Z,22.15
2018-01-12T03:05:00.750Z,22.18
2018-01-12T03:06:00.752Z,22.03
2018-01-12T03:07:00.755Z,22.18
2018-01-12T03:08:00.756Z,22.02
2018-01-12T03:09:00.759Z,22.20
2018-01-12T03:10:00.760Z,22.18
2018-01-12T03:11:00.763Z,22.10
2018-01-12T03:12:00.765Z,22.21
2018-01-12T03:13:00.772Z,22.17
2018-01-12T03:14:00.769Z,22.07
2018-01-12T03:15:00.772Z,22.15
2018-01-12T03:16:00.773Z,22.17
2018-01-12T03:17:00.775Z,22.17
2018-01-12T03:18:00.777Z,22.14
2018-01-12T03:19:00.781Z,22.05
2018-01-12T03:20:00.786Z,22.03
2018-01-12T03:21:00.784Z,22.06
2018-01-12T03:22:00.794Z,22.07
2018-01-12T03:23:00.789Z,22.06
2018-01-12T03:24:00.790Z,22.07
2018-01-12T03:25:00.793Z,22.09
2018-01-12T03:26:00.795Z,22.14
2018-01-12T03:27:00.797Z,22.14
2018-01-12T03:28:00.798Z,22.02
2018-01-12T03:29:00.806Z,22.07
2018-01-12T03:30:00.803Z,22.06
2018-01-12T03:31:00.806Z,22.06
2018-01-12T03:32:00.807Z,22.00
2018-01-12T03:33:00.809Z,22.07
2018-01-12T03:34:00.812Z,22.06
2018-01-12T03:35:00.822Z,22.09
2018-01-12T03:36:00.815Z,22.06
2018-01-12T03:37:00.820Z,22.10
2018-01-12T03:38:00.820Z,22.06
2018-01-12T03:39:00.823Z,22.07
2018-01-12T03:40:00.824Z,22.05
2018-01-12T03:41:00.826Z,22.00
2018-01-12T03:42:00.829Z,22.07
2018-01-12T03:43:00.830Z,22.07
2018-01-12T03:44:00.880Z,22.07
2018-01-12T03:45:00.834Z,22.07
2018-01-12T03:46:00.838Z,22.07
2018-01-12T03:47:00.839Z,22.05
2018-01-12T03:48:00.840Z,22.09
2018-01-12T03:49:00.845Z,22.07
2018-01-12T03:50:00.845Z,22.03
2018-01-12T03:51:00.848Z,22.02
2018-01-12T03:52:00.848Z,22.00
2018-01-12T03:53:00.851Z,22.07
2018-01-12T03:54:00.853Z,22.09
2018-01-12T03:55:00.855Z,22.07
2018-01-12T03:56:00.858Z,22.07
2018-01-12T03:57:00.860Z,22.07
2018-01-12T03:58:00.861Z,22.09
2018-01-12T03:59:00.865Z,22.03
2018-01-12T04:00:00.865Z,22.00
2018-01-12T04:01:00.867Z,22.05
2018-01-12T04:02:00.870Z,22.03
2018-01-12T04:03:00.872Z,22.07
2018-01-12T04:04:00.873Z,22.03
2018-01-12T04:05:00.875Z,22.05
2018-01-12T04:06:00.878Z,22.00
2018-01-12T04:07:00.881Z,22.06
2018-01-12T04:08:00.882Z,22.03
2018-01-12T04:09:00.884Z,21.98
2018-01-12T04:10:00.886Z,21.98
2018-01-12T04:11:00.888Z,22.02
2018-01-12T04:12:00.889Z,21.99
2018-01-12T04:13:00.892Z,21.94
2018-01-12T04:14:00.894Z,21.91
2018-01-12T04:15:00.896Z,21.88
2018-01-12T04:16:00.897Z,21.94
2018-01-12T04:17:00.900Z,21.96
2018-01-12T04:18:00.901Z,21.88
2018-01-12T04:19:00.904Z,21.91
2018-01-12T04:20:00.906Z,21.94
2018-01-12T04:21:00.914Z,21.92
2018-01-12T04:22:00.914Z,21.91
2018-01-12T04:23:00.915Z,21.91
2018-01-12T04:24:00.916Z,21.84
2018-01-12T04:25:00.917Z,21.83
2018-01-12T04:26:00.918Z,21.90
2018-01-12T04:27:00.919Z,21.82
2018-01-12T04:28:00.956Z,21.88
2018-01-12T04:29:00.921Z,21.91
2018-01-12T04:30:00.924Z,21.86
2018-01-12T04:31:00.926Z,21.90
2018-01-12T04:32:00.928Z,21.94
2018-01-12T04:33:00.928Z,21.83
2018-01-12T04:34:00.931Z,21.86
2018-01-12T04:35:00.937Z,21.88
2018-01-12T04:36:00.934Z,21.80
2018-01-12T04:37:00.936Z,21.82
2018-01-12T04:38:00.938Z,21.80
2018-01-12T04:39:00.940Z,21.90
2018-01-12T04:40:00.941Z,21.86
2018-01-12T04:41:00.942Z,21.90
2018-01-12T04:42:00.945Z,21.90
2018-01-12T04:43:00.949Z,21.90
2018-01-12T04:44:00.948Z,21.96
2018-01-12T04:45:00.950Z,21.90
2018-01-12T04:46:00.954Z,21.92
2018-01-12T04:47:00.955Z,21.88
2018-01-12T04:48:00.957Z,21.86
2018-01-12T04:49:00.959Z,21.86
2018-01-12T04:50:00.960Z,21.88
2018-01-12T04:51:00.963Z,21.92
2018-01-12T04:52:00.964Z,21.94
2018-01-12T04:53:00.966Z,21.86
2018-01-12T04:54:00.968Z,21.91
2018-01-12T04:55:00.971Z,21.94
2018-01-12T04:56:00.972Z,21.94
2018-01-12T04:57:00.975Z,21.91
2018-01-12T04:58:00.975Z,21.96
2018-01-12T04:59:00.978Z,21.90
2018-01-12T05:00:00.985Z,21.96
2018-01-12T05:01:00.982Z,21.94
2018-01-12T05:02:00.985Z,21.88
2018-01-12T05:03:00.986Z,21.88
2018-01-12T05:04:00.987Z,22.05
2018-01-12T05:05:00.990Z,21.92
2018-01-12T05:06:00.992Z,21.88
2018-01-12T05:07:00.995Z,22.03
2018-01-12T05:08:00.995Z,22.02
2018-01-12T05:09:01.004Z,21.99
2018-01-12T05:10:01.008Z,22.05
2018-01-12T05:11:01.006Z,22.05
2018-01-12T05:12:01.006Z,22.09
2018-01-12T05:13:01.008Z,22.02
2018-01-12T05:14:01.008Z,22.03
2018-01-12T05:15:01.010Z,22.14
2018-01-12T05:16:01.012Z,22.15
2018-01-12T05:17:01.013Z,22.20
2018-01-12T05:18:01.016Z,22.15
2018-01-12T05:19:01.023Z,22.09
2018-01-12T05:20:01.030Z,22.12
2018-01-12T05:21:01.024Z,22.15
2018-01-12T05:22:01.030Z,22.21
2018-01-12T05:23:01.029Z,22.15
2018-01-12T05:24:01.029Z,22.20
2018-01-12T05:25:01.032Z,22.17
2018-01-12T05:26:01.034Z,22.18
2018-01-12T05:27:01.036Z,22.12
2018-01-12T05:28:01.039Z,22.25
2018-01-12T05:29:01.041Z,22.22
2018-01-12T05:30:01.043Z,22.20
2018-01-12T05:31:01.046Z,22.33
2018-01-12T05:32:01.048Z,22.24
2018-01-12T05:33:01.052Z,22.27
2018-01-12T05:34:01.052Z,22.27
2018-01-12T05:35:01.056Z,22.24
2018-01-12T05:36:01.056Z,22.28
2018-01-12T05:37:01.059Z,22.28
2018-01-12T05:38:01.063Z,22.30
2018-01-12T05:39:01.064Z,22.28
2018-01-12T05:40:01.079Z,22.28
2018-01-12T05:41:01.069Z,22.28
2018-01-12T05:42:01.071Z,22.33
2018-01-12T05:43:01.074Z,22.36
2018-01-12T05:44:01.082Z,22.36
2018-01-12T05:45:01.078Z,22.36
2018-01-12T05:46:01.081Z,22.39
2018-01-12T05:47:01.088Z,22.36
2018-01-12T05:48:01.089Z,22.35
2018-01-12T05:49:01.088Z,22.33
2018-01-12T05:50:01.091Z,22.46
2018-01-12T05:51:01.094Z,22.43
2018-01-12T05:52:01.095Z,22.43
2018-01-12T05:53:01.098Z,22.39
2018-01-12T05:54:01.103Z,22.51
2018-01-12T05:55:01.104Z,22.54
2018-01-12T05:56:01.106Z,22.42
2018-01-12T05:57:01.112Z,22.51
2018-01-12T05:58:01.111Z,22.45
2018-01-12T05:59:01.113Z,22.45
2018-01-12T06:00:01.115Z,22.51
2018-01-12T06:01:01.116Z,22.51
2018-01-12T06:02:01.121Z,22.51
2018-01-12T06:03:01.123Z,22.51
2018-01-12T06:04:01.126Z,22.54
2018-01-12T06:05:01.130Z,22.57
2018-01-12T06:06:01.130Z,22.49
2018-01-12T06:07:01.131Z,22.51
2018-01-12T06:08:01.134Z,22.51
2018-01-12T06:09:01.139Z,22.58
2018-01-12T06:10:01.140Z,22.57
2018-01-12T06:11:01.143Z,22.60
2018-01-12T06:12:01.145Z,22.58
2018-01-12T06:13:01.148Z,22.54
2018-01-12T06:14:01.150Z,22.55
2018-01-12T06:15:01.151Z,22.54
2018-01-12T06:16:01.155Z,22.67
2018-01-12T06:17:01.196Z,22.60
2018-01-12T06:18:01.161Z,22.67
2018-01-12T06:19:01.165Z,22.62
2018-01-12T06:20:01.170Z,22.67
2018-01-12T06:21:01.169Z,22.62
2018-01-12T06:22:01.171Z,22.67
2018-01-12T06:23:01.174Z,22.67
2018-01-12T06:24:01.176Z,22.70
2018-01-12T06:25:01.179Z,22.62
2018-01-12T06:26:01.183Z,22.76
2018-01-12T06:27:01.184Z,22.70
2018-01-12T06:28:01.186Z,22.72
2018-01-12T06:29:01.189Z,22.73
2018-01-12T06:30:01.200Z,22.72
2018-01-12T06:31:01.200Z,22.72
2018-01-12T06:32:01.199Z,22.72
2018-01-12T06:33:01.200Z,22.72
2018-01-12T06:34:01.202Z,22.72
2018-01-12T06:35:01.206Z,22.73
2018-01-12T06:36:01.206Z,22.75
2018-01-12T06:37:01.213Z,22.75
2018-01-12T06:38:01.214Z,22.67
2018-01-12T06:39:01.216Z,22.75
2018-01-12T06:40:01.217Z,22.73
2018-01-12T06:41:01.221Z,22.85
2018-01-12T06:42:01.223Z,22.77
2018-01-12T06:43:01.227Z,22.72
2018-01-12T06:44:01.229Z,22.79
2018-01-12T06:45:01.231Z,22.80
2018-01-12T06:46:01.236Z,22.83
2018-01-12T06:47:01.242Z,22.75
2018-01-12T06:48:01.245Z,22.85
2018-01-12T06:49:01.244Z,22.77
2018-01-12T06:50:01.244Z,22.80
2018-01-12T06:51:01.247Z,22.77
2018-01-12T06:52:01.250Z,22.85
2018-01-12T06:53:01.252Z,22.82
2018-01-12T06:54:01.257Z,22.83
2018-01-12T06:55:01.260Z,22.85
2018-01-12T06:56:01.260Z,22.79
2018-01-12T06:57:01.263Z,22.86
2018-01-12T06:58:01.266Z,22.86
2018-01-12T06:59:01.269Z,22.90
2018-01-12T07:00:01.271Z,22.88
2018-01-12T07:01:01.274Z,22.85
2018-01-12T07:02:01.276Z,22.90
2018-01-12T07:03:01.280Z,22.85
2018-01-12T07:04:01.283Z,22.90
2018-01-12T07:05:01.284Z,22.90
2018-01-12T07:06:01.288Z,22.85
2018-01-12T07:07:01.292Z,22.91
2018-01-12T07:08:01.293Z,22.91
2018-01-12T07:09:01.294Z,22.92
2018-01-12T07:10:01.299Z,22.92
2018-01-12T07:11:01.302Z,22.86
2018-01-12T07:12:01.303Z,22.90
2018-01-12T07:13:01.308Z,22.94
2018-01-12T07:14:01.325Z,22.92
2018-01-12T07:15:01.312Z,22.91
2018-01-12T07:16:01.314Z,22.98
2018-01-12T07:17:01.318Z,22.94
2018-01-12T07:18:01.320Z,22.94
2018-01-12T07:19:01.323Z,22.92
2018-01-12T07:20:01.325Z,22.95
2018-01-12T07:21:01.329Z,22.92
2018-01-12T07:22:01.333Z,22.92
2018-01-12T07:23:01.335Z,22.91
2018-01-12T07:24:01.339Z,22.97
2018-01-12T07:25:01.340Z,23.04
2018-01-12T07:26:01.350Z,23.05
2018-01-12T07:27:01.347Z,22.94
2018-01-12T07:28:01.348Z,23.02
2018-01-12T07:29:01.350Z,23.04
2018-01-12T07:30:01.356Z,22.98
2018-01-12T07:31:01.357Z,23.04
2018-01-12T07:32:01.358Z,23.01
2018-01-12T07:33:01.366Z,23.04
2018-01-12T07:34:01.366Z,22.98
2018-01-12T07:35:01.368Z,23.00
2018-01-12T07:36:01.370Z,23.04
2018-01-12T07:37:01.374Z,23.04
2018-01-12T07:38:01.376Z,23.10
2018-01-12T07:39:01.378Z,23.12
2018-01-12T07:40:01.381Z,23.02
2018-01-12T07:41:01.386Z,23.09
2018-01-12T07:42:01.388Z,23.05
2018-01-12T07:43:01.390Z,23.04
2018-01-12T07:44:01.392Z,23.02
2018-01-12T07:45:01.396Z,23.12
2018-01-12T07:46:01.397Z,23.07
2018-01-12T07:47:01.402Z,23.05
2018-01-12T07:48:01.403Z,23.04
2018-01-12T07:49:01.408Z,23.07
2018-01-12T07:50:01.411Z,23.09
2018-01-12T07:51:01.414Z,23.01
2018-01-12T07:52:01.418Z,23.05
2018-01-12T07:53:01.418Z,23.05
2018-01-12T07:54:01.422Z,23.09
2018-01-12T07:55:01.424Z,23.04
2018-01-12T07:56:01.426Z,23.05
2018-01-12T07:57:01.431Z,23.07
2018-01-12T07:58:01.432Z,23.04
2018-01-12T07:59:01.435Z,23.04
2018-01-12T08:00:01.438Z,23.05
2018-01-12T08:01:01.440Z,23.02
2018-01-12T08:02:01.448Z,23.15
2018-01-12T08:03:01.448Z,23.10
2018-01-12T08:04:01.449Z,23.05
2018-01-12T08:05:01.451Z,23.13
2018-01-12T08:06:01.455Z,23.07
2018-01-12T08:07:01.459Z,23.13
2018-01-12T08:08:01.460Z,23.12
2018-01-12T08:09:01.470Z,23.05
2018-01-12T08:10:01.471Z,23.05
2018-01-12T08:11:01.474Z,23.04
2018-01-12T08:12:01.475Z,23.05
2018-01-12T08:13:01.475Z,23.05
2018-01-12T08:14:01.489Z,23.13
2018-01-12T08:15:01.490Z,23.02
2018-01-12T08:16:01.499Z,23.07
2018-01-12T08:17:01.502Z,23.10
2018-01-12T08:18:01.495Z,23.19
2018-01-12T08:19:01.493Z,23.16
2018-01-12T08:20:01.495Z,23.17
2018-01-12T08:21:01.501Z,23.12
2018-01-12T08:22:01.501Z,23.15
2018-01-12T08:23:01.508Z,23.19
2018-01-12T08:24:01.508Z,23.22
2018-01-12T08:25:01.510Z,23.13
2018-01-12T08:26:01.513Z,23.19
2018-01-12T08:27:01.518Z,23.23
2018-01-12T08:28:01.520Z,23.25
2018-01-12T08:29:01.523Z,23.31
2018-01-12T08:30:01.526Z,23.27
2018-01-12T08:31:01.529Z,23.27
2018-01-12T08:32:01.530Z,23.13
2018-01-12T08:33:01.584Z,23.25
2018-01-12T08:34:01.537Z,23.20
2018-01-12T08:35:01.540Z,23.25
2018-01-12T08:36:01.543Z,23.32
2018-01-12T08:37:01.553Z,23.38
2018-01-12T08:38:01.552Z,23.42
2018-01-12T08:39:01.555Z,23.36
2018-01-12T08:40:01.556Z,23.39
2018-01-12T08:41:01.568Z,23.38
2018-01-12T08:42:01.569Z,23.33
2018-01-12T08:43:01.570Z,23.39
2018-01-12T08:44:01.571Z,23.46
2018-01-12T08:45:01.572Z,23.46
2018-01-12T08:46:01.575Z,23.46
2018-01-12T08:47:01.576Z,23.46
2018-01-12T08:48:01.578Z,23.48
2018-01-12T08:49:01.583Z,23.51
2018-01-12T08:50:01.585Z,23.46
2018-01-12T08:51:01.589Z,23.46
2018-01-12T08:52:01.590Z,23.47
2018-01-12T08:53:01.595Z,23.43
2018-01-12T08:54:01.599Z,23.47
2018-01-12T08:55:01.600Z,23.50
2018-01-12T08:56:01.602Z,23.48
2018-01-12T08:57:01.606Z,23.47
2018-01-12T08:58:01.609Z,23.46
2018-01-12T08:59:01.613Z,23.46
2018-01-12T09:00:01.615Z,23.50
2018-01-12T09:01:01.618Z,23.43
2018-01-12T09:02:01.621Z,23.50
2018-01-12T09:03:01.625Z,23.43
2018-01-12T09:04:01.626Z,23.43
2018-01-12T09:05:01.634Z,23.48
2018-01-12T09:06:01.638Z,23.48
2018-01-12T09:07:01.636Z,23.42
2018-01-12T09:08:01.639Z,23.48
2018-01-12T09:09:01.644Z,23.50
2018-01-12T09:10:01.644Z,23.42
2018-01-12T09:11:01.649Z,23.46
2018-01-12T09:12:01.650Z,23.50
2018-01-12T09:13:01.652Z,23.47
2018-01-12T09:14:01.656Z,23.47
2018-01-12T09:15:01.660Z,23.50
2018-01-12T09:16:01.662Z,23.50
2018-01-12T09:17:01.666Z,23.50
2018-01-12T09:18:01.668Z,23.55
2018-01-12T09:19:01.672Z,23.53
2018-01-12T09:20:01.676Z,23.47
2018-01-12T09:21:01.677Z,23.51
2018-01-12T09:22:01.681Z,23.48
2018-01-12T09:23:01.683Z,23.50
2018-01-12T09:24:01.686Z,23.50
2018-01-12T09:25:01.689Z,23.53
2018-01-12T09:26:01.694Z,23.50
2018-01-12T09:27:01.697Z,23.50
2018-01-12T09:28:01.697Z,23.50
2018-01-12T09:29:01.703Z,23.53
2018-01-12T09:30:01.707Z,23.54
2018-01-12T09:31:01.707Z,23.51
2018-01-12T09:32:01.710Z,23.50
2018-01-12T09:33:01.716Z,23.50
2018-01-12T09:34:01.717Z,23.57
2018-01-12T09:35:01.722Z,23.51
2018-01-12T09:36:01.724Z,23.58
2018-01-12T09:37:01.727Z,23.57
2018-01-12T09:38:01.729Z,23.51
2018-01-12T09:39:01.734Z,23.55
2018-01-12T09:40:01.736Z,23.51
2018-01-12T09:41:01.739Z,23.53
2018-01-12T09:42:01.788Z,23.61
2018-01-12T09:43:01.783Z,23.58
2018-01-12T09:44:01.787Z,23.58
2018-01-12T09:45:01.786Z,23.57
2018-01-12T09:46:01.787Z,23.60
2018-01-12T09:47:01.787Z,23.60
2018-01-12T09:48:01.791Z,23.63
2018-01-12T09:49:01.786Z,23.65
2018-01-12T09:50:01.787Z,23.63
2018-01-12T09:51:01.790Z,23.76
2018-01-12T09:52:01.789Z,23.76
2018-01-12T09:53:01.793Z,23.70
2018-01-12T09:54:01.798Z,23.69
2018-01-12T09:55:01.789Z,23.65
2018-01-12T09:56:01.792Z,23.60
2018-01-12T09:57:01.792Z,23.61
2018-01-12T09:58:01.794Z,23.58
2018-01-12T09:59:01.796Z,23.57
2018-01-12T10:00:01.800Z,23.43
2018-01-12T10:01:01.835Z,23.46
2018-01-12T10:02:01.806Z,23.51
2018-01-12T10:03:01.808Z,23.48
2018-01-12T10:04:01.811Z,23.42
2018-01-12T10:05:01.812Z,23.40
2018-01-12T10:06:01.815Z,23.53
2018-01-12T10:07:01.817Z,23.38
2018-01-12T10:08:01.820Z,23.46
2018-01-12T10:09:01.862Z,23.36
2018-01-12T10:10:01.865Z,23.35
2018-01-12T10:11:01.864Z,23.40
2018-01-12T10:12:01.866Z,23.38
2018-01-12T10:13:01.866Z,23.22
2018-01-12T10:14:01.867Z,23.19
2018-01-12T10:15:01.865Z,23.16
2018-01-12T10:16:01.866Z,23.25
2018-01-12T10:17:01.867Z,23.19
2018-01-12T10:18:01.867Z,23.20
2018-01-12T10:19:01.869Z,23.22
2018-01-12T10:20:01.872Z,23.19
2018-01-12T10:21:01.874Z,23.07
2018-01-12T10:22:01.868Z,23.07
2018-01-12T10:23:01.871Z,23.02
2018-01-12T10:24:01.878Z,23.05
2018-01-12T10:25:01.872Z,22.94
2018-01-12T10:26:01.872Z,22.98
2018-01-12T10:27:01.874Z,23.05
2018-01-12T10:28:01.887Z,23.00
2018-01-12T10:29:01.875Z,23.04
2018-01-12T10:30:01.874Z,23.01
2018-01-12T10:31:01.876Z,22.98
2018-01-12T10:32:01.876Z,22.98
2018-01-12T10:33:01.877Z,22.95
2018-01-12T10:34:01.877Z,23.04
2018-01-12T10:35:01.888Z,23.00
2018-01-12T10:36:01.885Z,22.92
2018-01-12T10:37:01.886Z,23.00
2018-01-12T10:38:01.888Z,22.98
2018-01-12T10:39:01.894Z,22.85
2018-01-12T10:40:01.890Z,22.92
2018-01-12T10:41:01.904Z,23.01
2018-01-12T10:42:01.897Z,22.91
2018-01-12T10:43:01.900Z,22.90
2018-01-12T10:44:01.901Z,22.90
2018-01-12T10:45:01.902Z,22.88
2018-01-12T10:46:01.906Z,22.88
2018-01-12T10:47:01.953Z,22.90
2018-01-12T10:48:01.910Z,22.86
2018-01-12T10:49:01.916Z,22.88
2018-01-12T10:50:01.915Z,22.82
2018-01-12T10:51:01.919Z,22.86
2018-01-12T10:52:01.920Z,22.90
2018-01-12T10:53:01.922Z,22.90
2018-01-12T10:54:01.927Z,22.76
2018-01-12T10:55:01.929Z,22.80
2018-01-12T10:56:01.930Z,22.90
2018-01-12T10:57:01.942Z,22.80
2018-01-12T10:58:01.941Z,22.80
2018-01-12T10:59:01.942Z,22.70
2018-01-12T11:00:01.942Z,22.72
2018-01-12T11:01:01.941Z,22.77
2018-01-12T11:02:01.944Z,22.73
2018-01-12T11:03:01.946Z,22.75
2018-01-12T11:04:01.947Z,22.85
2018-01-12T11:05:01.949Z,22.75
2018-01-12T11:06:01.957Z,22.83
2018-01-12T11:07:01.954Z,22.88
2018-01-12T11:08:01.960Z,22.90
2018-01-12T11:09:01.959Z,22.86
2018-01-12T11:10:01.962Z,22.90
2018-01-12T11:11:01.966Z,22.92
2018-01-12T11:12:01.966Z,22.92
2018-01-12T11:13:01.969Z,22.88
2018-01-12T11:14:01.974Z,22.90
2018-01-12T11:15:01.976Z,22.91
2018-01-12T11:16:01.977Z,23.01
2018-01-12T11:17:01.981Z,22.97
2018-01-12T11:18:01.985Z,22.98
2018-01-12T11:19:01.989Z,23.05
2018-01-12T11:20:01.991Z,23.00
2018-01-12T11:21:01.992Z,23.04
2018-01-12T11:22:01.994Z,23.01
2018-01-12T11:23:01.998Z,23.00
2018-01-12T11:24:02.000Z,23.10
2018-01-12T11:25:02.004Z,23.09
2018-01-12T11:26:02.006Z,23.12
2018-01-12T11:27:02.011Z,23.09
2018-01-12T11:28:02.011Z,23.12
2018-01-12T11:29:02.014Z,23.09
2018-01-12T11:30:02.017Z,23.10
2018-01-12T11:31:02.020Z,23.16
2018-01-12T11:32:02.022Z,23.15
2018-01-12T11:33:02.027Z,23.19
2018-01-12T11:34:02.030Z,23.15
2018-01-12T11:35:02.033Z,23.16
2018-01-12T11:36:02.038Z,23.15
2018-01-12T11:37:02.038Z,23.23
2018-01-12T11:38:02.039Z,23.13
2018-01-12T11:39:02.045Z,23.15
2018-01-12T11:40:02.046Z,23.20
2018-01-12T11:41:02.050Z,23.23
2018-01-12T11:42:02.052Z,23.20
2018-01-12T11:43:02.055Z,23.25
2018-01-12T11:44:02.059Z,23.28
2018-01-12T11:45:02.062Z,23.27
2018-01-12T11:46:02.064Z,23.17
2018-01-12T11:47:02.069Z,23.19
2018-01-12T11:48:02.071Z,23.23
2018-01-12T11:49:02.074Z,23.36
2018-01-12T11:50:02.078Z,23.39
2018-01-12T11:51:02.079Z,23.36
2018-01-12T11:52:02.083Z,23.39
2018-01-12T11:53:02.087Z,23.38
2018-01-12T11:54:02.089Z,23.42
2018-01-12T11:55:02.093Z,23.42
2018-01-12T11:56:02.095Z,23.36
2018-01-12T11:57:02.098Z,23.32
2018-01-12T11:58:02.102Z,23.39
2018-01-12T11:59:02.105Z,23.33
2018-01-12T12:00:02.106Z,23.36
2018-01-12T12:01:02.110Z,23.38
2018-01-12T12:02:02.113Z,23.42
2018-01-12T12:03:02.117Z,23.42
2018-01-12T12:04:02.119Z,23.42
2018-01-12T12:05:02.122Z,23.42
2018-01-12T12:06:02.126Z,23.48
2018-01-12T12:07:02.129Z,23.48
2018-01-12T12:08:02.132Z,23.42
2018-01-12T12:09:02.135Z,23.54
2018-01-12T12:10:02.138Z,23.48
2018-01-12T12:11:02.145Z,23.51
2018-01-12T12:12:02.145Z,23.46
2018-01-12T12:13:02.149Z,23.46
2018-01-12T12:14:02.151Z,23.46
2018-01-12T12:15:02.155Z,23.43
2018-01-12T12:16:02.198Z,23.47
2018-01-12T12:17:02.161Z,23.43
2018-01-12T12:18:02.164Z,23.47
2018-01-12T12:19:02.167Z,23.55
2018-01-12T12:20:02.171Z,23.50
2018-01-12T12:21:02.174Z,23.51
2018-01-12T12:22:02.176Z,23.46
2018-01-12T12:23:02.180Z,23.50
2018-01-12T12:24:02.182Z,23.53
2018-01-12T12:25:02.189Z,23.54
2018-01-12T12:26:02.189Z,23.53
2018-01-12T12:27:02.195Z,23.51
2018-01-12T12:28:02.196Z,23.53
2018-01-12T12:29:02.197Z,23.55
2018-01-12T12:30:02.202Z,23.53
2018-01-12T12:31:02.206Z,23.54
2018-01-12T12:32:02.208Z,23.57
2018-01-12T12:33:02.212Z,23.47
2018-01-12T12:34:02.215Z,23.54
2018-01-12T12:35:02.219Z,23.54
2018-01-12T12:36:02.222Z,23.61
2018-01-12T12:37:02.224Z,23.54
2018-01-12T12:38:02.228Z,23.55
2018-01-12T12:39:02.234Z,23.58
2018-01-12T12:40:02.236Z,23.55
2018-01-12T12:41:02.240Z,23.54
2018-01-12T12:42:02.240Z,23.58
2018-01-12T12:43:02.244Z,23.55
2018-01-12T12:44:02.247Z,23.60
2018-01-12T12:45:02.255Z,23.58
2018-01-12T12:46:02.253Z,23.57
2018-01-12T12:47:02.259Z,23.54
2018-01-12T12:48:02.259Z,23.51
2018-01-12T12:49:02.264Z,23.54
2018-01-12T12:50:02.267Z,23.60
2018-01-12T12:51:02.269Z,23.60
2018-01-12T12:52:02.273Z,23.60